sensor_id;sensor_type;location;lat;lon;timestamp;pressure;altitude;pressure_sealevel;temperature;humidity
4586;BME280;2305;50.118;8.952;2023-04-24T00:01:33;99396.91;;;13.80;100.00
4586;BME280;2305;50.118;8.952;2023-04-24T00:04:03;99388.66;;;13.83;100.00
4586;BME280;2305;50.118;8.952;2023-04-24T00:06:33;99387.47;;;13.77;100.00
4586;BME280;2305;50.118;8.952;2023-04-24T00:09:04;99386.66;;;13.77;100.00
4586;BME280;2305;50.118;8.952;2023-04-24T00:11:32;99383.16;;;13.84;100.00
4586;BME280;2305;50.118;8.952;2023-04-24T00:14:00;99378.88;;;13.83;100.00
4586;BME280;2305;50.118;8.952;2023-04-24T00:16:30;99379.38;;;13.79;100.00
4586;BME280;2305;50.118;8.952;2023-04-24T00:19:00;99365.47;;;13.77;100.00
4586;BME280;2305;50.118;8.952;2023-04-24T00:21:28;99367.47;;;13.75;100.00
4586;BME280;2305;50.118;8.952;2023-04-24T00:24:00;99365.13;;;13.80;100.00
4586;BME280;2305;50.118;8.952;2023-04-24T00:26:32;99367.16;;;13.70;100.00
4586;BME280;2305;50.118;8.952;2023-04-24T00:29:04;99362.66;;;13.70;100.00
4586;BME280;2305;50.118;8.952;2023-04-24T00:31:32;99351.59;;;13.75;100.00
4586;BME280;2305;50.118;8.952;2023-04-24T00:34:02;99358.53;;;13.76;100.00
4586;BME280;2305;50.118;8.952;2023-04-24T00:36:31;99348.25;;;13.81;100.00
4586;BME280;2305;50.118;8.952;2023-04-24T00:39:03;99343.47;;;13.76;100.00
4586;BME280;2305;50.118;8.952;2023-04-24T00:41:31;99344.94;;;13.79;100.00
4586;BME280;2305;50.118;8.952;2023-04-24T00:44:02;99341.50;;;13.63;100.00
4586;BME280;2305;50.118;8.952;2023-04-24T00:46:31;99330.44;;;13.59;100.00
4586;BME280;2305;50.118;8.952;2023-04-24T00:48:59;99335.41;;;13.62;100.00
4586;BME280;2305;50.118;8.952;2023-04-24T00:51:31;99340.19;;;13.59;100.00
4586;BME280;2305;50.118;8.952;2023-04-24T00:54:05;99334.22;;;13.57;100.00
4586;BME280;2305;50.118;8.952;2023-04-24T00:56:35;99334.56;;;13.54;100.00
4586;BME280;2305;50.118;8.952;2023-04-24T00:59:10;99330.78;;;13.48;100.00
4586;BME280;2305;50.118;8.952;2023-04-24T01:01:39;99333.09;;;13.51;100.00
4586;BME280;2305;50.118;8.952;2023-04-24T01:04:09;99336.72;;;13.50;100.00
4586;BME280;2305;50.118;8.952;2023-04-24T01:06:43;99331.28;;;13.52;100.00
4586;BME280;2305;50.118;8.952;2023-04-24T01:09:14;99328.63;;;13.52;100.00
4586;BME280;2305;50.118;8.952;2023-04-24T01:11:45;99328.13;;;13.48;100.00
4586;BME280;2305;50.118;8.952;2023-04-24T01:14:13;99325.00;;;13.45;100.00
4586;BME280;2305;50.118;8.952;2023-04-24T01:16:41;99324.16;;;13.52;100.00
4586;BME280;2305;50.118;8.952;2023-04-24T01:19:11;99323.34;;;13.44;100.00
4586;BME280;2305;50.118;8.952;2023-04-24T01:21:39;99332.09;;;13.44;100.00
4586;BME280;2305;50.118;8.952;2023-04-24T01:24:10;99322.19;;;13.38;100.00
4586;BME280;2305;50.118;8.952;2023-04-24T01:26:38;99325.81;;;13.37;100.00
4586;BME280;2305;50.118;8.952;2023-04-24T01:29:06;99334.09;;;13.42;100.00
4586;BME280;2305;50.118;8.952;2023-04-24T01:31:35;99330.81;;;13.40;100.00
4586;BME280;2305;50.118;8.952;2023-04-24T01:34:06;99332.28;;;13.43;100.00
4586;BME280;2305;50.118;8.952;2023-04-24T01:36:36;99330.81;;;13.40;100.00
4586;BME280;2305;50.118;8.952;2023-04-24T01:39:09;99324.34;;;13.43;100.00
4586;BME280;2305;50.118;8.952;2023-04-24T01:41:37;99327.97;;;13.42;100.00
4586;BME280;2305;50.118;8.952;2023-04-24T01:44:09;99338.25;;;13.45;100.00
4586;BME280;2305;50.118;8.952;2023-04-24T01:46:38;99330.47;;;13.43;100.00
4586;BME280;2305;50.118;8.952;2023-04-24T01:49:08;99333.09;;;13.43;100.00
4586;BME280;2305;50.118;8.952;2023-04-24T01:51:37;99320.88;;;13.42;100.00
4586;BME280;2305;50.118;8.952;2023-04-24T01:54:05;99306.81;;;13.42;100.00
4586;BME280;2305;50.118;8.952;2023-04-24T01:56:41;99311.59;;;13.38;100.00
4586;BME280;2305;50.118;8.952;2023-04-24T01:59:11;99308.94;;;13.38;100.00
4586;BME280;2305;50.118;8.952;2023-04-24T02:01:41;99307.00;;;13.40;100.00
4586;BME280;2305;50.118;8.952;2023-04-24T02:04:09;99306.63;;;13.43;100.00
4586;BME280;2305;50.118;8.952;2023-04-24T02:06:38;99311.13;;;13.43;100.00
4586;BME280;2305;50.118;8.952;2023-04-24T02:09:07;99310.94;;;13.44;100.00
4586;BME280;2305;50.118;8.952;2023-04-24T02:11:37;99306.31;;;13.38;100.00
4586;BME280;2305;50.118;8.952;2023-04-24T02:14:08;99305.31;;;13.47;100.00
4586;BME280;2305;50.118;8.952;2023-04-24T02:16:39;99296.69;;;13.45;100.00
4586;BME280;2305;50.118;8.952;2023-04-24T02:19:08;99295.00;;;13.60;100.00
4586;BME280;2305;50.118;8.952;2023-04-24T02:21:36;99300.84;;;13.48;100.00
4586;BME280;2305;50.118;8.952;2023-04-24T02:24:05;99295.38;;;13.49;100.00
4586;BME280;2305;50.118;8.952;2023-04-24T02:26:33;99299.34;;;13.45;100.00
4586;BME280;2305;50.118;8.952;2023-04-24T02:29:03;99306.00;;;13.41;100.00
4586;BME280;2305;50.118;8.952;2023-04-24T02:31:32;99303.84;;;13.45;100.00
4586;BME280;2305;50.118;8.952;2023-04-24T02:34:05;99294.53;;;13.49;100.00
4586;BME280;2305;50.118;8.952;2023-04-24T02:36:33;99296.53;;;13.47;100.00
4586;BME280;2305;50.118;8.952;2023-04-24T02:39:02;99306.13;;;13.48;100.00
4586;BME280;2305;50.118;8.952;2023-04-24T02:41:32;99291.41;;;13.45;100.00
4586;BME280;2305;50.118;8.952;2023-04-24T02:44:04;99299.69;;;13.42;100.00
4586;BME280;2305;50.118;8.952;2023-04-24T02:46:32;99299.84;;;13.49;100.00
4586;BME280;2305;50.118;8.952;2023-04-24T02:49:01;99304.97;;;13.50;100.00
4586;BME280;2305;50.118;8.952;2023-04-24T02:51:29;99308.59;;;13.57;100.00
4586;BME280;2305;50.118;8.952;2023-04-24T02:54:00;99312.59;;;13.45;100.00
4586;BME280;2305;50.118;8.952;2023-04-24T02:56:28;99318.56;;;13.47;100.00
4586;BME280;2305;50.118;8.952;2023-04-24T02:58:58;99303.34;;;13.33;100.00
4586;BME280;2305;50.118;8.952;2023-04-24T03:01:28;99308.16;;;13.30;100.00
4586;BME280;2305;50.118;8.952;2023-04-24T03:03:59;99307.50;;;13.36;100.00
4586;BME280;2305;50.118;8.952;2023-04-24T03:06:29;99324.84;;;13.22;100.00
4586;BME280;2305;50.118;8.952;2023-04-24T03:09:00;99314.91;;;13.24;100.00
4586;BME280;2305;50.118;8.952;2023-04-24T03:11:29;99334.44;;;13.23;100.00
4586;BME280;2305;50.118;8.952;2023-04-24T03:13:57;99330.31;;;13.29;100.00
4586;BME280;2305;50.118;8.952;2023-04-24T03:16:29;99322.38;;;13.29;100.00
4586;BME280;2305;50.118;8.952;2023-04-24T03:18:58;99317.59;;;13.32;100.00
4586;BME280;2305;50.118;8.952;2023-04-24T03:21:33;99323.19;;;13.29;100.00
4586;BME280;2305;50.118;8.952;2023-04-24T03:24:02;99324.34;;;13.19;100.00
4586;BME280;2305;50.118;8.952;2023-04-24T03:26:31;99324.69;;;13.24;100.00
4586;BME280;2305;50.118;8.952;2023-04-24T03:29:14;99324.34;;;13.27;100.00
4586;BME280;2305;50.118;8.952;2023-04-24T03:31:44;99331.47;;;13.34;100.00
4586;BME280;2305;50.118;8.952;2023-04-24T03:34:12;99335.75;;;13.43;100.00
4586;BME280;2305;50.118;8.952;2023-04-24T03:36:41;99333.78;;;13.29;100.00
4586;BME280;2305;50.118;8.952;2023-04-24T03:39:10;99329.81;;;13.33;100.00
4586;BME280;2305;50.118;8.952;2023-04-24T03:41:44;99333.47;;;13.32;100.00
4586;BME280;2305;50.118;8.952;2023-04-24T03:44:17;99331.97;;;13.22;100.00
4586;BME280;2305;50.118;8.952;2023-04-24T03:46:47;99339.72;;;13.07;100.00
4586;BME280;2305;50.118;8.952;2023-04-24T03:49:15;99341.50;;;12.91;100.00
4586;BME280;2305;50.118;8.952;2023-04-24T03:51:46;99351.22;;;12.82;100.00
4586;BME280;2305;50.118;8.952;2023-04-24T03:54:19;99351.06;;;12.76;100.00
4586;BME280;2305;50.118;8.952;2023-04-24T03:56:49;99356.50;;;12.82;100.00
4586;BME280;2305;50.118;8.952;2023-04-24T03:59:18;99349.44;;;12.91;100.00
4586;BME280;2305;50.118;8.952;2023-04-24T04:01:58;99355.88;;;12.88;100.00
4586;BME280;2305;50.118;8.952;2023-04-24T04:04:27;99365.44;;;12.81;100.00
4586;BME280;2305;50.118;8.952;2023-04-24T04:06:56;99360.63;;;12.69;100.00
4586;BME280;2305;50.118;8.952;2023-04-24T04:09:27;99359.97;;;12.67;100.00
4586;BME280;2305;50.118;8.952;2023-04-24T04:11:55;99364.91;;;12.70;100.00
4586;BME280;2305;50.118;8.952;2023-04-24T04:14:24;99387.50;;;12.48;100.00
4586;BME280;2305;50.118;8.952;2023-04-24T04:16:52;99385.63;;;12.41;100.00
4586;BME280;2305;50.118;8.952;2023-04-24T04:19:22;99386.63;;;12.40;100.00
4586;BME280;2305;50.118;8.952;2023-04-24T04:21:53;99390.88;;;12.33;100.00
4586;BME280;2305;50.118;8.952;2023-04-24T04:24:32;99391.72;;;12.33;100.00
4586;BME280;2305;50.118;8.952;2023-04-24T04:27:00;99386.78;;;12.38;100.00
4586;BME280;2305;50.118;8.952;2023-04-24T04:29:34;99397.69;;;12.43;100.00
4586;BME280;2305;50.118;8.952;2023-04-24T04:32:05;99395.16;;;12.26;100.00
4586;BME280;2305;50.118;8.952;2023-04-24T04:34:38;99401.28;;;12.26;100.00
4586;BME280;2305;50.118;8.952;2023-04-24T04:37:07;99396.34;;;12.39;100.00
4586;BME280;2305;50.118;8.952;2023-04-24T04:39:53;99396.03;;;12.34;100.00
4586;BME280;2305;50.118;8.952;2023-04-24T04:42:24;99400.75;;;12.23;100.00
4586;BME280;2305;50.118;8.952;2023-04-24T04:44:52;99406.16;;;12.13;100.00
4586;BME280;2305;50.118;8.952;2023-04-24T04:47:27;99400.13;;;12.03;100.00
4586;BME280;2305;50.118;8.952;2023-04-24T04:50:00;99409.31;;;11.91;100.00
4586;BME280;2305;50.118;8.952;2023-04-24T04:52:31;99411.34;;;11.97;100.00
4586;BME280;2305;50.118;8.952;2023-04-24T04:55:10;99420.22;;;11.96;100.00
4586;BME280;2305;50.118;8.952;2023-04-24T04:58:06;99419.19;;;11.89;100.00
4586;BME280;2305;50.118;8.952;2023-04-24T05:00:34;99425.63;;;11.87;100.00
4586;BME280;2305;50.118;8.952;2023-04-24T05:03:13;99422.28;;;11.85;100.00
4586;BME280;2305;50.118;8.952;2023-04-24T05:05:45;99426.16;;;11.90;100.00
4586;BME280;2305;50.118;8.952;2023-04-24T05:08:17;99443.03;;;11.97;100.00
4586;BME280;2305;50.118;8.952;2023-04-24T05:10:53;99435.53;;;11.93;100.00
4586;BME280;2305;50.118;8.952;2023-04-24T05:13:24;99434.50;;;11.86;100.00
4586;BME280;2305;50.118;8.952;2023-04-24T05:16:12;99439.97;;;11.84;100.00
4586;BME280;2305;50.118;8.952;2023-04-24T05:18:40;99443.47;;;11.93;100.00
4586;BME280;2305;50.118;8.952;2023-04-24T05:21:13;99442.66;;;11.92;100.00
4586;BME280;2305;50.118;8.952;2023-04-24T05:23:44;99444.88;;;11.79;100.00
4586;BME280;2305;50.118;8.952;2023-04-24T05:26:16;99450.19;;;11.87;100.00
4586;BME280;2305;50.118;8.952;2023-04-24T05:28:44;99459.63;;;11.90;100.00
4586;BME280;2305;50.118;8.952;2023-04-24T05:31:12;99451.00;;;11.80;100.00
4586;BME280;2305;50.118;8.952;2023-04-24T05:33:41;99465.56;;;11.92;100.00
4586;BME280;2305;50.118;8.952;2023-04-24T05:36:10;99469.06;;;11.92;100.00
4586;BME280;2305;50.118;8.952;2023-04-24T05:38:39;99467.53;;;11.90;100.00
4586;BME280;2305;50.118;8.952;2023-04-24T05:41:07;99471.31;;;11.87;100.00
4586;BME280;2305;50.118;8.952;2023-04-24T05:43:35;99477.78;;;11.93;100.00
4586;BME280;2305;50.118;8.952;2023-04-24T05:46:03;99482.16;;;12.02;100.00
4586;BME280;2305;50.118;8.952;2023-04-24T05:48:31;99480.75;;;12.15;100.00
4586;BME280;2305;50.118;8.952;2023-04-24T05:51:01;99491.94;;;12.09;100.00
4586;BME280;2305;50.118;8.952;2023-04-24T05:53:29;99491.41;;;12.06;100.00
4586;BME280;2305;50.118;8.952;2023-04-24T05:55:58;99492.63;;;12.11;100.00
4586;BME280;2305;50.118;8.952;2023-04-24T05:58:26;99492.69;;;12.19;100.00
4586;BME280;2305;50.118;8.952;2023-04-24T06:00:55;99494.81;;;12.16;100.00
4586;BME280;2305;50.118;8.952;2023-04-24T06:03:24;99490.66;;;12.13;100.00
4586;BME280;2305;50.118;8.952;2023-04-24T06:05:53;99498.91;;;12.18;100.00
4586;BME280;2305;50.118;8.952;2023-04-24T06:08:24;99489.75;;;12.30;100.00
4586;BME280;2305;50.118;8.952;2023-04-24T06:10:55;99493.00;;;12.24;100.00
4586;BME280;2305;50.118;8.952;2023-04-24T06:13:25;99494.75;;;12.33;100.00
4586;BME280;2305;50.118;8.952;2023-04-24T06:16:13;99499.34;;;12.31;100.00
4586;BME280;2305;50.118;8.952;2023-04-24T06:18:46;99501.69;;;12.34;100.00
4586;BME280;2305;50.118;8.952;2023-04-24T06:21:16;99498.00;;;12.27;100.00
4586;BME280;2305;50.118;8.952;2023-04-24T06:23:44;99505.66;;;12.38;100.00
4586;BME280;2305;50.118;8.952;2023-04-24T06:26:14;99502.53;;;12.43;100.00
4586;BME280;2305;50.118;8.952;2023-04-24T06:28:43;99502.28;;;12.54;100.00
4586;BME280;2305;50.118;8.952;2023-04-24T06:31:12;99513.00;;;12.52;100.00
4586;BME280;2305;50.118;8.952;2023-04-24T06:33:42;99509.81;;;12.41;100.00
4586;BME280;2305;50.118;8.952;2023-04-24T06:36:11;99506.06;;;12.51;100.00
4586;BME280;2305;50.118;8.952;2023-04-24T06:38:39;99520.88;;;12.44;100.00
4586;BME280;2305;50.118;8.952;2023-04-24T06:41:07;99516.53;;;12.35;100.00
4586;BME280;2305;50.118;8.952;2023-04-24T06:43:35;99519.91;;;12.45;100.00
4586;BME280;2305;50.118;8.952;2023-04-24T06:46:09;99518.59;;;12.49;100.00
4586;BME280;2305;50.118;8.952;2023-04-24T06:48:37;99528.19;;;12.50;100.00
4586;BME280;2305;50.118;8.952;2023-04-24T06:51:06;99526.25;;;12.60;100.00
4586;BME280;2305;50.118;8.952;2023-04-24T06:53:34;99526.13;;;12.70;100.00
4586;BME280;2305;50.118;8.952;2023-04-24T06:56:02;99534.56;;;12.99;100.00
4586;BME280;2305;50.118;8.952;2023-04-24T06:58:30;99529.50;;;13.13;100.00
4586;BME280;2305;50.118;8.952;2023-04-24T07:00:59;99524.25;;;13.21;100.00
4586;BME280;2305;50.118;8.952;2023-04-24T07:03:28;99533.53;;;13.25;100.00
4586;BME280;2305;50.118;8.952;2023-04-24T07:05:57;99540.75;;;13.15;100.00
4586;BME280;2305;50.118;8.952;2023-04-24T07:08:25;99543.69;;;13.04;100.00
4586;BME280;2305;50.118;8.952;2023-04-24T07:10:53;99546.84;;;13.08;100.00
4586;BME280;2305;50.118;8.952;2023-04-24T07:13:23;99542.53;;;13.07;100.00
4586;BME280;2305;50.118;8.952;2023-04-24T07:15:51;99566.66;;;12.78;100.00
4586;BME280;2305;50.118;8.952;2023-04-24T07:18:20;99550.28;;;12.75;100.00
4586;BME280;2305;50.118;8.952;2023-04-24T07:20:51;99552.50;;;12.87;100.00
4586;BME280;2305;50.118;8.952;2023-04-24T07:23:20;99549.50;;;12.82;100.00
4586;BME280;2305;50.118;8.952;2023-04-24T07:25:50;99543.22;;;12.75;100.00
4586;BME280;2305;50.118;8.952;2023-04-24T07:28:18;99531.81;;;12.83;100.00
4586;BME280;2305;50.118;8.952;2023-04-24T07:30:46;99540.28;;;12.86;100.00
4586;BME280;2305;50.118;8.952;2023-04-24T07:33:15;99547.06;;;12.89;100.00
4586;BME280;2305;50.118;8.952;2023-04-24T07:35:43;99541.34;;;13.01;100.00
4586;BME280;2305;50.118;8.952;2023-04-24T07:38:13;99532.19;;;12.88;100.00
4586;BME280;2305;50.118;8.952;2023-04-24T07:40:41;99545.69;;;13.10;100.00
4586;BME280;2305;50.118;8.952;2023-04-24T07:43:09;99548.44;;;13.42;100.00
4586;BME280;2305;50.118;8.952;2023-04-24T07:45:45;99533.72;;;13.56;100.00
4586;BME280;2305;50.118;8.952;2023-04-24T07:48:19;99549.44;;;13.41;100.00
4586;BME280;2305;50.118;8.952;2023-04-24T07:50:48;99537.84;;;13.42;100.00
4586;BME280;2305;50.118;8.952;2023-04-24T07:53:18;99536.88;;;13.59;100.00
4586;BME280;2305;50.118;8.952;2023-04-24T07:55:46;99551.94;;;13.51;100.00
4586;BME280;2305;50.118;8.952;2023-04-24T07:58:14;99529.44;;;13.55;100.00
4586;BME280;2305;50.118;8.952;2023-04-24T08:00:43;99537.97;;;13.25;100.00
4586;BME280;2305;50.118;8.952;2023-04-24T08:03:11;99544.28;;;12.90;100.00
4586;BME280;2305;50.118;8.952;2023-04-24T08:05:40;99544.84;;;13.02;100.00
4586;BME280;2305;50.118;8.952;2023-04-24T08:08:10;99548.03;;;13.21;100.00
4586;BME280;2305;50.118;8.952;2023-04-24T08:10:40;99545.00;;;13.58;100.00
4586;BME280;2305;50.118;8.952;2023-04-24T08:13:08;99547.69;;;13.81;100.00
4586;BME280;2305;50.118;8.952;2023-04-24T08:15:38;99580.59;;;13.63;100.00
4586;BME280;2305;50.118;8.952;2023-04-24T08:18:06;99566.50;;;13.70;100.00
4586;BME280;2305;50.118;8.952;2023-04-24T08:20:35;99572.25;;;13.42;100.00
4586;BME280;2305;50.118;8.952;2023-04-24T08:23:03;99567.00;;;13.58;100.00
4586;BME280;2305;50.118;8.952;2023-04-24T08:25:31;99574.28;;;13.56;100.00
4586;BME280;2305;50.118;8.952;2023-04-24T08:28:06;99566.31;;;13.40;100.00
4586;BME280;2305;50.118;8.952;2023-04-24T08:30:36;99573.72;;;13.37;100.00
4586;BME280;2305;50.118;8.952;2023-04-24T08:33:05;99573.09;;;13.43;100.00
4586;BME280;2305;50.118;8.952;2023-04-24T08:35:34;99581.06;;;13.51;100.00
4586;BME280;2305;50.118;8.952;2023-04-24T08:38:02;99585.16;;;13.53;100.00
4586;BME280;2305;50.118;8.952;2023-04-24T08:40:34;99602.84;;;13.37;100.00
4586;BME280;2305;50.118;8.952;2023-04-24T08:43:10;99591.97;;;13.63;100.00
4586;BME280;2305;50.118;8.952;2023-04-24T08:45:41;99580.69;;;13.46;100.00
4586;BME280;2305;50.118;8.952;2023-04-24T08:48:09;99587.50;;;13.56;100.00
4586;BME280;2305;50.118;8.952;2023-04-24T08:50:58;99591.34;;;13.69;100.00
4586;BME280;2305;50.118;8.952;2023-04-24T08:53:28;99574.81;;;13.91;100.00
4586;BME280;2305;50.118;8.952;2023-04-24T08:55:58;99584.94;;;13.96;100.00
4586;BME280;2305;50.118;8.952;2023-04-24T08:58:29;99583.59;;;14.16;100.00
4586;BME280;2305;50.118;8.952;2023-04-24T09:00:59;99579.34;;;14.23;100.00
4586;BME280;2305;50.118;8.952;2023-04-24T09:03:28;99573.06;;;14.32;100.00
4586;BME280;2305;50.118;8.952;2023-04-24T09:05:58;99581.81;;;14.24;100.00
4586;BME280;2305;50.118;8.952;2023-04-24T09:08:29;99577.19;;;14.42;100.00
4586;BME280;2305;50.118;8.952;2023-04-24T09:10:57;99570.69;;;14.45;100.00
4586;BME280;2305;50.118;8.952;2023-04-24T09:13:30;99581.31;;;14.61;100.00
4586;BME280;2305;50.118;8.952;2023-04-24T09:15:59;99581.25;;;14.77;100.00
4586;BME280;2305;50.118;8.952;2023-04-24T09:18:29;99586.19;;;14.88;100.00
4586;BME280;2305;50.118;8.952;2023-04-24T09:21:00;99590.56;;;14.65;100.00
4586;BME280;2305;50.118;8.952;2023-04-24T09:23:29;99601.19;;;14.57;100.00
4586;BME280;2305;50.118;8.952;2023-04-24T09:26:02;99588.28;;;14.54;100.00
4586;BME280;2305;50.118;8.952;2023-04-24T09:28:35;99614.28;;;14.34;100.00
4586;BME280;2305;50.118;8.952;2023-04-24T09:31:06;99613.59;;;14.16;100.00
4586;BME280;2305;50.118;8.952;2023-04-24T09:33:35;99619.88;;;13.99;100.00
4586;BME280;2305;50.118;8.952;2023-04-24T09:36:04;99613.22;;;13.87;100.00
4586;BME280;2305;50.118;8.952;2023-04-24T09:38:34;99631.78;;;13.87;100.00
4586;BME280;2305;50.118;8.952;2023-04-24T09:41:07;99650.09;;;13.73;100.00
4586;BME280;2305;50.118;8.952;2023-04-24T09:43:37;99628.25;;;13.79;100.00
4586;BME280;2305;50.118;8.952;2023-04-24T09:46:07;99637.22;;;13.94;100.00
4586;BME280;2305;50.118;8.952;2023-04-24T09:48:37;99654.97;;;14.01;100.00
4586;BME280;2305;50.118;8.952;2023-04-24T09:51:07;99662.25;;;13.99;100.00
4586;BME280;2305;50.118;8.952;2023-04-24T09:53:38;99654.97;;;14.09;100.00
4586;BME280;2305;50.118;8.952;2023-04-24T09:56:15;99673.53;;;14.09;100.00
4586;BME280;2305;50.118;8.952;2023-04-24T09:58:46;99670.38;;;14.14;100.00
4586;BME280;2305;50.118;8.952;2023-04-24T10:01:14;99660.41;;;13.84;100.00
4586;BME280;2305;50.118;8.952;2023-04-24T10:03:43;99668.13;;;13.77;100.00
4586;BME280;2305;50.118;8.952;2023-04-24T10:06:13;99663.06;;;13.92;100.00
4586;BME280;2305;50.118;8.952;2023-04-24T10:08:43;99664.91;;;13.99;100.00
4586;BME280;2305;50.118;8.952;2023-04-24T10:11:12;99664.59;;;14.10;100.00
4586;BME280;2305;50.118;8.952;2023-04-24T10:13:44;99650.88;;;14.31;100.00
4586;BME280;2305;50.118;8.952;2023-04-24T10:16:14;99673.56;;;14.41;100.00
4586;BME280;2305;50.118;8.952;2023-04-24T10:18:44;99661.34;;;14.56;100.00
4586;BME280;2305;50.118;8.952;2023-04-24T10:21:14;99665.78;;;14.64;100.00
4586;BME280;2305;50.118;8.952;2023-04-24T10:23:44;99675.75;;;14.70;100.00
4586;BME280;2305;50.118;8.952;2023-04-24T10:26:13;99683.03;;;14.44;100.00
4586;BME280;2305;50.118;8.952;2023-04-24T10:28:46;99679.72;;;14.50;100.00
4586;BME280;2305;50.118;8.952;2023-04-24T10:31:16;99666.97;;;14.45;100.00
4586;BME280;2305;50.118;8.952;2023-04-24T10:33:46;99665.47;;;14.67;100.00
4586;BME280;2305;50.118;8.952;2023-04-24T10:36:15;99673.09;;;14.70;100.00
4586;BME280;2305;50.118;8.952;2023-04-24T10:38:46;99674.06;;;14.45;100.00
4586;BME280;2305;50.118;8.952;2023-04-24T10:41:18;99689.31;;;14.19;100.00
4586;BME280;2305;50.118;8.952;2023-04-24T10:44:05;99676.97;;;14.10;100.00
4586;BME280;2305;50.118;8.952;2023-04-24T10:46:38;99677.28;;;13.91;100.00
4586;BME280;2305;50.118;8.952;2023-04-24T10:49:07;99693.59;;;13.70;100.00
4586;BME280;2305;50.118;8.952;2023-04-24T10:51:47;99700.22;;;13.67;100.00
4586;BME280;2305;50.118;8.952;2023-04-24T10:54:26;99702.88;;;13.33;100.00
4586;BME280;2305;50.118;8.952;2023-04-24T10:57:25;99700.72;;;13.29;100.00
4586;BME280;2305;50.118;8.952;2023-04-24T11:00:25;99706.34;;;13.34;100.00
4586;BME280;2305;50.118;8.952;2023-04-24T11:02:54;99710.72;;;13.43;100.00
4586;BME280;2305;50.118;8.952;2023-04-24T11:08:27;99719.88;;;13.64;100.00
4586;BME280;2305;50.118;8.952;2023-04-24T11:10:58;99731.22;;;13.82;100.00
4586;BME280;2305;50.118;8.952;2023-04-24T11:16:24;99712.44;;;14.17;100.00
4586;BME280;2305;50.118;8.952;2023-04-24T11:19:00;99732.22;;;14.30;100.00
4586;BME280;2305;50.118;8.952;2023-04-24T11:21:42;99726.09;;;14.30;100.00
4586;BME280;2305;50.118;8.952;2023-04-24T11:24:27;99732.75;;;14.58;100.00
4586;BME280;2305;50.118;8.952;2023-04-24T11:26:58;99719.50;;;14.82;100.00
4586;BME280;2305;50.118;8.952;2023-04-24T11:29:44;99734.09;;;14.62;100.00
4586;BME280;2305;50.118;8.952;2023-04-24T11:32:24;99717.00;;;14.88;100.00
4586;BME280;2305;50.118;8.952;2023-04-24T11:34:59;99724.47;;;14.93;100.00
4586;BME280;2305;50.118;8.952;2023-04-24T11:37:29;99719.63;;;15.12;100.00
4586;BME280;2305;50.118;8.952;2023-04-24T11:40:05;99714.47;;;15.35;100.00
4586;BME280;2305;50.118;8.952;2023-04-24T11:42:35;99718.94;;;15.26;100.00
4586;BME280;2305;50.118;8.952;2023-04-24T11:45:07;99726.91;;;15.18;100.00
4586;BME280;2305;50.118;8.952;2023-04-24T11:47:38;99725.63;;;15.06;100.00
4586;BME280;2305;50.118;8.952;2023-04-24T11:50:09;99721.28;;;15.37;100.00
4586;BME280;2305;50.118;8.952;2023-04-24T11:52:39;99721.75;;;15.41;100.00
4586;BME280;2305;50.118;8.952;2023-04-24T11:55:12;99723.06;;;15.53;100.00
4586;BME280;2305;50.118;8.952;2023-04-24T11:57:52;99731.00;;;15.61;100.00
4586;BME280;2305;50.118;8.952;2023-04-24T12:00:21;99726.69;;;15.60;100.00
4586;BME280;2305;50.118;8.952;2023-04-24T12:02:53;99728.28;;;15.77;100.00
4586;BME280;2305;50.118;8.952;2023-04-24T12:05:31;99720.53;;;15.98;100.00
4586;BME280;2305;50.118;8.952;2023-04-24T12:08:01;99718.41;;;15.93;100.00
4586;BME280;2305;50.118;8.952;2023-04-24T12:10:31;99714.25;;;15.52;100.00
4586;BME280;2305;50.118;8.952;2023-04-24T12:13:00;99726.38;;;15.55;100.00
4586;BME280;2305;50.118;8.952;2023-04-24T12:15:33;99731.94;;;15.76;100.00
4586;BME280;2305;50.118;8.952;2023-04-24T12:18:03;99723.72;;;15.55;100.00
4586;BME280;2305;50.118;8.952;2023-04-24T12:20:32;99715.13;;;15.37;100.00
4586;BME280;2305;50.118;8.952;2023-04-24T12:23:01;99743.69;;;15.19;100.00
4586;BME280;2305;50.118;8.952;2023-04-24T12:25:32;99724.94;;;14.96;100.00
4586;BME280;2305;50.118;8.952;2023-04-24T12:28:11;99726.31;;;14.92;100.00
4586;BME280;2305;50.118;8.952;2023-04-24T12:30:42;99748.50;;;14.75;100.00
4586;BME280;2305;50.118;8.952;2023-04-24T12:33:18;99733.25;;;14.93;100.00
4586;BME280;2305;50.118;8.952;2023-04-24T12:35:48;99731.94;;;14.81;100.00
4586;BME280;2305;50.118;8.952;2023-04-24T12:38:22;99734.06;;;15.02;100.00
4586;BME280;2305;50.118;8.952;2023-04-24T12:41:02;99724.41;;;15.41;100.00
4586;BME280;2305;50.118;8.952;2023-04-24T12:43:33;99725.22;;;15.49;100.00
4586;BME280;2305;50.118;8.952;2023-04-24T12:46:02;99732.91;;;15.36;100.00
4586;BME280;2305;50.118;8.952;2023-04-24T12:48:31;99725.44;;;15.24;100.00
4586;BME280;2305;50.118;8.952;2023-04-24T12:51:02;99733.56;;;15.14;100.00
4586;BME280;2305;50.118;8.952;2023-04-24T12:53:31;99748.50;;;15.07;100.00
4586;BME280;2305;50.118;8.952;2023-04-24T12:55:59;99768.22;;;14.73;100.00
4586;BME280;2305;50.118;8.952;2023-04-24T12:58:27;99773.19;;;14.60;100.00
4586;BME280;2305;50.118;8.952;2023-04-24T13:00:55;99764.59;;;14.90;100.00
4586;BME280;2305;50.118;8.952;2023-04-24T13:03:23;99762.09;;;15.36;100.00
4586;BME280;2305;50.118;8.952;2023-04-24T13:05:55;99755.69;;;15.69;100.00
4586;BME280;2305;50.118;8.952;2023-04-24T13:08:23;99759.28;;;15.92;100.00
4586;BME280;2305;50.118;8.952;2023-04-24T13:10:51;99763.59;;;15.93;100.00
4586;BME280;2305;50.118;8.952;2023-04-24T13:13:20;99757.06;;;16.04;100.00
4586;BME280;2305;50.118;8.952;2023-04-24T13:15:48;99763.91;;;15.90;100.00
4586;BME280;2305;50.118;8.952;2023-04-24T13:18:16;99758.09;;;15.95;100.00
4586;BME280;2305;50.118;8.952;2023-04-24T13:20:44;99756.41;;;15.94;100.00
4586;BME280;2305;50.118;8.952;2023-04-24T13:23:15;99753.06;;;16.00;100.00
4586;BME280;2305;50.118;8.952;2023-04-24T13:25:43;99751.09;;;15.94;100.00
4586;BME280;2305;50.118;8.952;2023-04-24T13:28:12;99751.94;;;15.94;100.00
4586;BME280;2305;50.118;8.952;2023-04-24T13:30:46;99755.97;;;16.21;100.00
4586;BME280;2305;50.118;8.952;2023-04-24T13:33:18;99748.22;;;16.42;100.00
4586;BME280;2305;50.118;8.952;2023-04-24T13:35:46;99747.81;;;16.98;100.00